sensor_id;sensor_type;location;lat;lon;timestamp;temperature;humidity
36594;DHT22;22603;47.900;8.146;2024-02-15T00:01:19;3.20;99.90
36594;DHT22;22603;47.900;8.146;2024-02-15T00:04:06;3.20;99.90
36594;DHT22;22603;47.900;8.146;2024-02-15T00:06:53;3.10;99.90
36594;DHT22;22603;47.900;8.146;2024-02-15T00:09:40;3.00;99.90
36594;DHT22;22603;47.900;8.146;2024-02-15T00:12:28;3.00;99.90
36594;DHT22;22603;47.900;8.146;2024-02-15T00:15:15;3.20;99.90
36594;DHT22;22603;47.900;8.146;2024-02-15T00:18:03;3.00;99.90
36594;DHT22;22603;47.900;8.146;2024-02-15T00:20:50;2.90;99.90
36594;DHT22;22603;47.900;8.146;2024-02-15T00:23:37;2.90;99.90
36594;DHT22;22603;47.900;8.146;2024-02-15T00:26:25;2.90;99.90
36594;DHT22;22603;47.900;8.146;2024-02-15T00:29:14;2.80;99.90
36594;DHT22;22603;47.900;8.146;2024-02-15T00:32:00;2.90;99.90
36594;DHT22;22603;47.900;8.146;2024-02-15T00:34:49;2.80;99.90
36594;DHT22;22603;47.900;8.146;2024-02-15T00:37:37;2.80;99.90
36594;DHT22;22603;47.900;8.146;2024-02-15T00:40:24;2.70;99.90
36594;DHT22;22603;47.900;8.146;2024-02-15T00:43:10;2.60;99.90
36594;DHT22;22603;47.900;8.146;2024-02-15T00:45:58;2.60;99.90
36594;DHT22;22603;47.900;8.146;2024-02-15T00:48:45;2.60;99.90
36594;DHT22;22603;47.900;8.146;2024-02-15T00:51:32;2.60;99.90
36594;DHT22;22603;47.900;8.146;2024-02-15T00:54:20;2.50;99.90
36594;DHT22;22603;47.900;8.146;2024-02-15T00:57:07;2.50;99.90
36594;DHT22;22603;47.900;8.146;2024-02-15T00:59:55;2.40;99.90
36594;DHT22;22603;47.900;8.146;2024-02-15T01:02:43;2.40;99.90
36594;DHT22;22603;47.900;8.146;2024-02-15T01:05:30;2.30;99.90
36594;DHT22;22603;47.900;8.146;2024-02-15T01:08:17;2.30;99.90
36594;DHT22;22603;47.900;8.146;2024-02-15T01:11:04;2.20;99.90
36594;DHT22;22603;47.900;8.146;2024-02-15T01:13:51;2.20;99.90
36594;DHT22;22603;47.900;8.146;2024-02-15T01:16:38;2.20;99.90
36594;DHT22;22603;47.900;8.146;2024-02-15T01:19:26;2.20;99.90
36594;DHT22;22603;47.900;8.146;2024-02-15T01:22:13;2.10;99.90
36594;DHT22;22603;47.900;8.146;2024-02-15T01:25:00;2.00;99.90
36594;DHT22;22603;47.900;8.146;2024-02-15T01:27:46;2.00;99.90
36594;DHT22;22603;47.900;8.146;2024-02-15T01:30:34;2.00;99.90
36594;DHT22;22603;47.900;8.146;2024-02-15T01:33:20;1.90;99.90
36594;DHT22;22603;47.900;8.146;2024-02-15T01:36:13;1.90;99.90
36594;DHT22;22603;47.900;8.146;2024-02-15T01:39:01;1.80;99.90
36594;DHT22;22603;47.900;8.146;2024-02-15T01:41:48;1.80;99.90
36594;DHT22;22603;47.900;8.146;2024-02-15T01:44:36;1.80;99.90
36594;DHT22;22603;47.900;8.146;2024-02-15T01:47:24;1.80;99.90
36594;DHT22;22603;47.900;8.146;2024-02-15T01:50:12;1.80;99.90
36594;DHT22;22603;47.900;8.146;2024-02-15T01:53:01;2.00;99.90
36594;DHT22;22603;47.900;8.146;2024-02-15T01:55:50;1.90;99.90
36594;DHT22;22603;47.900;8.146;2024-02-15T01:58:40;2.00;99.90
36594;DHT22;22603;47.900;8.146;2024-02-15T02:01:28;2.00;99.90
36594;DHT22;22603;47.900;8.146;2024-02-15T02:04:15;1.90;99.90
36594;DHT22;22603;47.900;8.146;2024-02-15T02:07:02;1.90;99.90
36594;DHT22;22603;47.900;8.146;2024-02-15T02:09:50;2.00;99.90
36594;DHT22;22603;47.900;8.146;2024-02-15T02:12:37;2.00;99.90
36594;DHT22;22603;47.900;8.146;2024-02-15T02:15:24;2.10;99.90
36594;DHT22;22603;47.900;8.146;2024-02-15T02:18:11;2.10;99.90
36594;DHT22;22603;47.900;8.146;2024-02-15T02:20:58;2.10;99.90
36594;DHT22;22603;47.900;8.146;2024-02-15T02:23:48;2.20;99.90
36594;DHT22;22603;47.900;8.146;2024-02-15T02:26:39;2.20;99.90
36594;DHT22;22603;47.900;8.146;2024-02-15T02:29:26;2.30;99.90
36594;DHT22;22603;47.900;8.146;2024-02-15T02:32:15;2.20;99.90
36594;DHT22;22603;47.900;8.146;2024-02-15T02:35:02;2.20;99.90
36594;DHT22;22603;47.900;8.146;2024-02-15T02:37:49;2.20;99.90
36594;DHT22;22603;47.900;8.146;2024-02-15T02:40:35;2.20;99.90
36594;DHT22;22603;47.900;8.146;2024-02-15T02:43:24;2.20;99.90
36594;DHT22;22603;47.900;8.146;2024-02-15T02:46:11;2.10;99.90
36594;DHT22;22603;47.900;8.146;2024-02-15T02:48:58;2.20;99.90
36594;DHT22;22603;47.900;8.146;2024-02-15T02:51:45;2.10;99.90
36594;DHT22;22603;47.900;8.146;2024-02-15T02:54:32;2.10;99.90
36594;DHT22;22603;47.900;8.146;2024-02-15T02:57:20;2.20;99.90
36594;DHT22;22603;47.900;8.146;2024-02-15T03:00:10;2.10;99.90
36594;DHT22;22603;47.900;8.146;2024-02-15T03:02:58;2.10;99.90
36594;DHT22;22603;47.900;8.146;2024-02-15T03:05:45;2.00;99.90
36594;DHT22;22603;47.900;8.146;2024-02-15T03:08:32;2.00;99.90
36594;DHT22;22603;47.900;8.146;2024-02-15T03:11:20;2.00;99.90
36594;DHT22;22603;47.900;8.146;2024-02-15T03:14:06;2.00;99.90
36594;DHT22;22603;47.900;8.146;2024-02-15T03:16:55;2.00;99.90
36594;DHT22;22603;47.900;8.146;2024-02-15T03:19:42;2.00;99.90
36594;DHT22;22603;47.900;8.146;2024-02-15T03:22:29;1.90;99.90
36594;DHT22;22603;47.900;8.146;2024-02-15T03:25:16;1.80;99.90
36594;DHT22;22603;47.900;8.146;2024-02-15T03:28:03;1.80;99.90
36594;DHT22;22603;47.900;8.146;2024-02-15T03:30:50;1.80;99.90
36594;DHT22;22603;47.900;8.146;2024-02-15T03:33:39;1.90;99.90
36594;DHT22;22603;47.900;8.146;2024-02-15T03:36:26;1.90;99.90
36594;DHT22;22603;47.900;8.146;2024-02-15T03:39:14;1.80;99.90
36594;DHT22;22603;47.900;8.146;2024-02-15T03:42:01;1.80;99.90
36594;DHT22;22603;47.900;8.146;2024-02-15T03:44:49;1.70;99.90
36594;DHT22;22603;47.900;8.146;2024-02-15T03:47:36;1.70;99.90
36594;DHT22;22603;47.900;8.146;2024-02-15T03:50:24;1.70;99.90
36594;DHT22;22603;47.900;8.146;2024-02-15T03:53:11;1.70;99.90
36594;DHT22;22603;47.900;8.146;2024-02-15T03:55:59;1.70;99.90
36594;DHT22;22603;47.900;8.146;2024-02-15T03:58:46;1.70;99.90
36594;DHT22;22603;47.900;8.146;2024-02-15T04:01:35;1.70;99.90
36594;DHT22;22603;47.900;8.146;2024-02-15T04:04:22;1.70;99.90
36594;DHT22;22603;47.900;8.146;2024-02-15T04:07:10;1.70;99.90
36594;DHT22;22603;47.900;8.146;2024-02-15T04:09:57;1.60;99.90
36594;DHT22;22603;47.900;8.146;2024-02-15T04:12:44;1.70;99.90
36594;DHT22;22603;47.900;8.146;2024-02-15T04:15:31;1.60;99.90
36594;DHT22;22603;47.900;8.146;2024-02-15T04:18:19;1.60;99.90
36594;DHT22;22603;47.900;8.146;2024-02-15T04:21:05;1.60;99.90
36594;DHT22;22603;47.900;8.146;2024-02-15T04:23:54;1.60;99.90
36594;DHT22;22603;47.900;8.146;2024-02-15T04:26:41;1.60;99.90
36594;DHT22;22603;47.900;8.146;2024-02-15T04:29:27;1.60;99.90
36594;DHT22;22603;47.900;8.146;2024-02-15T04:32:15;1.60;99.90
36594;DHT22;22603;47.900;8.146;2024-02-15T04:35:05;1.50;99.90
36594;DHT22;22603;47.900;8.146;2024-02-15T04:37:55;1.60;99.90
36594;DHT22;22603;47.900;8.146;2024-02-15T04:40:43;1.50;99.90
36594;DHT22;22603;47.900;8.146;2024-02-15T04:43:30;1.60;99.90
36594;DHT22;22603;47.900;8.146;2024-02-15T04:46:18;1.60;99.90
36594;DHT22;22603;47.900;8.146;2024-02-15T04:49:07;1.60;99.90
36594;DHT22;22603;47.900;8.146;2024-02-15T04:51:53;1.60;99.90
36594;DHT22;22603;47.900;8.146;2024-02-15T04:54:40;1.50;99.90
36594;DHT22;22603;47.900;8.146;2024-02-15T04:57:28;1.50;99.90
36594;DHT22;22603;47.900;8.146;2024-02-15T05:00:16;1.60;99.90
36594;DHT22;22603;47.900;8.146;2024-02-15T05:03:06;1.60;99.90
36594;DHT22;22603;47.900;8.146;2024-02-15T05:05:54;1.60;99.90
36594;DHT22;22603;47.900;8.146;2024-02-15T05:08:40;1.60;99.90
36594;DHT22;22603;47.900;8.146;2024-02-15T05:11:28;1.60;99.90
36594;DHT22;22603;47.900;8.146;2024-02-15T05:14:16;1.60;99.90
36594;DHT22;22603;47.900;8.146;2024-02-15T05:17:05;1.70;99.90
36594;DHT22;22603;47.900;8.146;2024-02-15T05:19:56;1.70;99.90
36594;DHT22;22603;47.900;8.146;2024-02-15T05:22:45;1.70;99.90
36594;DHT22;22603;47.900;8.146;2024-02-15T05:25:35;1.70;99.90
36594;DHT22;22603;47.900;8.146;2024-02-15T05:28:22;1.60;99.90
36594;DHT22;22603;47.900;8.146;2024-02-15T05:31:17;1.70;99.90
36594;DHT22;22603;47.900;8.146;2024-02-15T05:34:06;1.60;99.90
36594;DHT22;22603;47.900;8.146;2024-02-15T05:36:57;1.70;99.90
36594;DHT22;22603;47.900;8.146;2024-02-15T05:39:44;1.70;99.90
36594;DHT22;22603;47.900;8.146;2024-02-15T05:42:31;1.70;99.90
36594;DHT22;22603;47.900;8.146;2024-02-15T05:45:31;1.60;99.90
36594;DHT22;22603;47.900;8.146;2024-02-15T05:48:23;1.60;99.90
36594;DHT22;22603;47.900;8.146;2024-02-15T05:51:10;1.70;99.90
36594;DHT22;22603;47.900;8.146;2024-02-15T05:53:57;1.60;99.90
36594;DHT22;22603;47.900;8.146;2024-02-15T05:56:45;1.60;99.90
36594;DHT22;22603;47.900;8.146;2024-02-15T05:59:37;1.50;99.90
36594;DHT22;22603;47.900;8.146;2024-02-15T06:02:26;1.50;99.90
36594;DHT22;22603;47.900;8.146;2024-02-15T06:05:14;1.40;99.90
36594;DHT22;22603;47.900;8.146;2024-02-15T06:08:03;1.40;99.90
36594;DHT22;22603;47.900;8.146;2024-02-15T06:10:50;1.40;99.90
36594;DHT22;22603;47.900;8.146;2024-02-15T06:13:38;1.40;99.90
36594;DHT22;22603;47.900;8.146;2024-02-15T06:16:24;1.40;99.90
36594;DHT22;22603;47.900;8.146;2024-02-15T06:19:11;1.40;99.90
36594;DHT22;22603;47.900;8.146;2024-02-15T06:22:01;1.40;99.90
36594;DHT22;22603;47.900;8.146;2024-02-15T06:24:48;1.30;99.90
36594;DHT22;22603;47.900;8.146;2024-02-15T06:27:34;1.30;99.90
36594;DHT22;22603;47.900;8.146;2024-02-15T06:30:25;1.30;99.90
36594;DHT22;22603;47.900;8.146;2024-02-15T06:33:29;1.30;99.90
36594;DHT22;22603;47.900;8.146;2024-02-15T06:36:39;1.30;99.90
36594;DHT22;22603;47.900;8.146;2024-02-15T06:39:45;1.30;99.90
36594;DHT22;22603;47.900;8.146;2024-02-15T06:42:32;1.40;99.90
36594;DHT22;22603;47.900;8.146;2024-02-15T06:45:19;1.40;99.90
36594;DHT22;22603;47.900;8.146;2024-02-15T06:48:07;1.40;99.90
36594;DHT22;22603;47.900;8.146;2024-02-15T06:50:54;1.40;99.90
36594;DHT22;22603;47.900;8.146;2024-02-15T06:53:41;1.40;99.90
36594;DHT22;22603;47.900;8.146;2024-02-15T06:56:30;1.30;99.90
36594;DHT22;22603;47.900;8.146;2024-02-15T06:59:16;1.40;99.90
36594;DHT22;22603;47.900;8.146;2024-02-15T07:02:04;1.40;99.90
36594;DHT22;22603;47.900;8.146;2024-02-15T07:04:51;1.50;99.90
36594;DHT22;22603;47.900;8.146;2024-02-15T07:07:38;1.60;99.90
36594;DHT22;22603;47.900;8.146;2024-02-15T07:10:28;1.60;99.90
36594;DHT22;22603;47.900;8.146;2024-02-15T07:13:18;1.80;99.90
36594;DHT22;22603;47.900;8.146;2024-02-15T07:16:07;1.80;99.90
36594;DHT22;22603;47.900;8.146;2024-02-15T07:18:54;2.00;99.90
36594;DHT22;22603;47.900;8.146;2024-02-15T07:21:41;2.00;99.90
36594;DHT22;22603;47.900;8.146;2024-02-15T07:24:29;2.20;99.90
36594;DHT22;22603;47.900;8.146;2024-02-15T07:27:17;2.20;99.90
36594;DHT22;22603;47.900;8.146;2024-02-15T07:30:08;2.20;99.90
36594;DHT22;22603;47.900;8.146;2024-02-15T07:32:54;2.20;99.90
36594;DHT22;22603;47.900;8.146;2024-02-15T07:35:42;2.20;99.90
36594;DHT22;22603;47.900;8.146;2024-02-15T07:38:29;2.40;99.90
36594;DHT22;22603;47.900;8.146;2024-02-15T07:41:20;2.30;99.90
36594;DHT22;22603;47.900;8.146;2024-02-15T07:44:08;2.40;99.90
36594;DHT22;22603;47.900;8.146;2024-02-15T07:46:56;2.40;99.90
36594;DHT22;22603;47.900;8.146;2024-02-15T07:49:43;2.50;99.90
36594;DHT22;22603;47.900;8.146;2024-02-15T07:52:30;2.60;99.90
36594;DHT22;22603;47.900;8.146;2024-02-15T07:55:18;2.70;99.90
36594;DHT22;22603;47.900;8.146;2024-02-15T07:58:05;2.80;99.90
36594;DHT22;22603;47.900;8.146;2024-02-15T08:00:51;2.90;99.90
36594;DHT22;22603;47.900;8.146;2024-02-15T08:03:40;2.90;99.90
36594;DHT22;22603;47.900;8.146;2024-02-15T08:06:30;3.10;99.90
36594;DHT22;22603;47.900;8.146;2024-02-15T08:09:18;3.00;99.90
36594;DHT22;22603;47.900;8.146;2024-02-15T08:12:07;3.00;99.90
36594;DHT22;22603;47.900;8.146;2024-02-15T08:14:54;2.90;99.90
36594;DHT22;22603;47.900;8.146;2024-02-15T08:17:44;2.80;99.90
36594;DHT22;22603;47.900;8.146;2024-02-15T08:20:33;2.80;99.90
36594;DHT22;22603;47.900;8.146;2024-02-15T08:23:20;2.80;99.90
36594;DHT22;22603;47.900;8.146;2024-02-15T08:26:07;2.90;99.90
36594;DHT22;22603;47.900;8.146;2024-02-15T08:28:57;2.80;99.90
36594;DHT22;22603;47.900;8.146;2024-02-15T08:31:43;2.90;99.90
36594;DHT22;22603;47.900;8.146;2024-02-15T08:34:30;3.00;99.90
36594;DHT22;22603;47.900;8.146;2024-02-15T08:37:20;2.80;99.90
36594;DHT22;22603;47.900;8.146;2024-02-15T08:40:08;2.80;99.90
36594;DHT22;22603;47.900;8.146;2024-02-15T08:42:57;3.10;99.90
36594;DHT22;22603;47.900;8.146;2024-02-15T08:45:44;3.20;99.90
36594;DHT22;22603;47.900;8.146;2024-02-15T08:48:31;3.10;99.90
36594;DHT22;22603;47.900;8.146;2024-02-15T08:51:19;3.10;99.90
36594;DHT22;22603;47.900;8.146;2024-02-15T08:54:11;3.00;99.90
36594;DHT22;22603;47.900;8.146;2024-02-15T08:56:58;3.00;99.90
36594;DHT22;22603;47.900;8.146;2024-02-15T08:59:44;3.20;99.90
36594;DHT22;22603;47.900;8.146;2024-02-15T09:02:31;3.60;99.90
36594;DHT22;22603;47.900;8.146;2024-02-15T09:05:19;3.90;99.90
36594;DHT22;22603;47.900;8.146;2024-02-15T09:08:08;4.20;99.90
36594;DHT22;22603;47.900;8.146;2024-02-15T09:10:56;4.50;99.90
36594;DHT22;22603;47.900;8.146;2024-02-15T09:13:43;4.50;99.90
36594;DHT22;22603;47.900;8.146;2024-02-15T09:16:30;4.60;99.90
36594;DHT22;22603;47.900;8.146;2024-02-15T09:19:17;4.40;99.90
36594;DHT22;22603;47.900;8.146;2024-02-15T09:22:04;4.60;99.90
36594;DHT22;22603;47.900;8.146;2024-02-15T09:24:51;4.50;99.90
36594;DHT22;22603;47.900;8.146;2024-02-15T09:27:39;4.90;99.90
36594;DHT22;22603;47.900;8.146;2024-02-15T09:30:26;5.50;99.90
36594;DHT22;22603;47.900;8.146;2024-02-15T09:33:13;5.90;99.90
36594;DHT22;22603;47.900;8.146;2024-02-15T09:36:00;5.90;99.90
36594;DHT22;22603;47.900;8.146;2024-02-15T09:38:47;5.80;99.90
36594;DHT22;22603;47.900;8.146;2024-02-15T09:41:35;5.80;99.90
36594;DHT22;22603;47.900;8.146;2024-02-15T09:44:23;6.30;99.90
36594;DHT22;22603;47.900;8.146;2024-02-15T09:47:12;7.00;99.90
36594;DHT22;22603;47.900;8.146;2024-02-15T09:50:02;7.30;99.90
36594;DHT22;22603;47.900;8.146;2024-02-15T09:52:50;7.40;99.90
36594;DHT22;22603;47.900;8.146;2024-02-15T09:55:39;7.50;99.90
36594;DHT22;22603;47.900;8.146;2024-02-15T09:58:27;7.60;99.90
36594;DHT22;22603;47.900;8.146;2024-02-15T10:01:20;8.10;99.90
36594;DHT22;22603;47.900;8.146;2024-02-15T10:04:09;8.90;99.90
36594;DHT22;22603;47.900;8.146;2024-02-15T10:07:01;8.80;99.90
36594;DHT22;22603;47.900;8.146;2024-02-15T10:09:48;8.80;99.90
36594;DHT22;22603;47.900;8.146;2024-02-15T10:12:37;8.80;99.90
36594;DHT22;22603;47.900;8.146;2024-02-15T10:15:30;8.90;99.90
36594;DHT22;22603;47.900;8.146;2024-02-15T10:18:20;9.10;99.90
36594;DHT22;22603;47.900;8.146;2024-02-15T10:21:08;9.10;99.90
36594;DHT22;22603;47.900;8.146;2024-02-15T10:24:05;9.10;99.90
36594;DHT22;22603;47.900;8.146;2024-02-15T10:27:00;10.00;99.90
36594;DHT22;22603;47.900;8.146;2024-02-15T10:29:49;10.20;99.90
36594;DHT22;22603;47.900;8.146;2024-02-15T10:32:36;10.90;99.90
36594;DHT22;22603;47.900;8.146;2024-02-15T10:35:25;11.20;99.90
36594;DHT22;22603;47.900;8.146;2024-02-15T10:38:12;11.40;99.90
36594;DHT22;22603;47.900;8.146;2024-02-15T10:41:05;12.40;99.90
36594;DHT22;22603;47.900;8.146;2024-02-15T10:43:52;13.20;99.90
36594;DHT22;22603;47.900;8.146;2024-02-15T10:46:40;12.70;99.90
36594;DHT22;22603;47.900;8.146;2024-02-15T10:49:28;12.80;99.90
36594;DHT22;22603;47.900;8.146;2024-02-15T10:52:19;13.00;99.90
36594;DHT22;22603;47.900;8.146;2024-02-15T10:55:08;13.20;99.90
36594;DHT22;22603;47.900;8.146;2024-02-15T10:58:01;13.00;99.90
36594;DHT22;22603;47.900;8.146;2024-02-15T11:00:50;12.90;99.90
36594;DHT22;22603;47.900;8.146;2024-02-15T11:03:44;13.80;99.90
36594;DHT22;22603;47.900;8.146;2024-02-15T11:06:35;14.60;99.90
36594;DHT22;22603;47.900;8.146;2024-02-15T11:09:29;13.30;99.90
36594;DHT22;22603;47.900;8.146;2024-02-15T11:12:16;14.10;99.90
36594;DHT22;22603;47.900;8.146;2024-02-15T11:15:03;14.40;99.90
36594;DHT22;22603;47.900;8.146;2024-02-15T11:17:52;15.30;99.90
36594;DHT22;22603;47.900;8.146;2024-02-15T11:20:46;15.10;99.90
36594;DHT22;22603;47.900;8.146;2024-02-15T11:23:35;16.10;99.90
36594;DHT22;22603;47.900;8.146;2024-02-15T11:26:45;16.80;99.90
36594;DHT22;22603;47.900;8.146;2024-02-15T11:29:50;17.40;99.90
36594;DHT22;22603;47.900;8.146;2024-02-15T11:32:40;17.30;99.90
36594;DHT22;22603;47.900;8.146;2024-02-15T11:35:30;17.20;99.90
36594;DHT22;22603;47.900;8.146;2024-02-15T11:38:28;17.20;99.90
36594;DHT22;22603;47.900;8.146;2024-02-15T11:41:18;16.60;99.90
36594;DHT22;22603;47.900;8.146;2024-02-15T11:44:16;16.90;99.90
36594;DHT22;22603;47.900;8.146;2024-02-15T11:47:03;17.20;99.90
36594;DHT22;22603;47.900;8.146;2024-02-15T11:49:53;16.80;99.90
36594;DHT22;22603;47.900;8.146;2024-02-15T11:52:40;16.70;99.90
36594;DHT22;22603;47.900;8.146;2024-02-15T11:55:27;17.10;99.90
36594;DHT22;22603;47.900;8.146;2024-02-15T11:58:16;17.30;99.90
36594;DHT22;22603;47.900;8.146;2024-02-15T12:01:09;17.30;99.90
36594;DHT22;22603;47.900;8.146;2024-02-15T12:04:14;17.50;99.90
36594;DHT22;22603;47.900;8.146;2024-02-15T12:07:18;17.40;99.90
36594;DHT22;22603;47.900;8.146;2024-02-15T12:10:23;17.50;99.90
36594;DHT22;22603;47.900;8.146;2024-02-15T12:13:27;17.20;99.90
36594;DHT22;22603;47.900;8.146;2024-02-15T12:16:35;17.00;99.90
36594;DHT22;22603;47.900;8.146;2024-02-15T12:19:39;16.80;99.90
36594;DHT22;22603;47.900;8.146;2024-02-15T12:22:28;17.10;99.90
36594;DHT22;22603;47.900;8.146;2024-02-15T12:25:16;17.00;99.90
36594;DHT22;22603;47.900;8.146;2024-02-15T12:28:06;16.70;99.90
36594;DHT22;22603;47.900;8.146;2024-02-15T12:30:55;16.80;99.90
36594;DHT22;22603;47.900;8.146;2024-02-15T12:33:44;16.90;99.90
36594;DHT22;22603;47.900;8.146;2024-02-15T12:36:32;17.00;99.90
36594;DHT22;22603;47.900;8.146;2024-02-15T12:39:24;17.00;99.90
36594;DHT22;22603;47.900;8.146;2024-02-15T12:42:14;17.10;99.90
36594;DHT22;22603;47.900;8.146;2024-02-15T12:45:02;17.30;99.90
36594;DHT22;22603;47.900;8.146;2024-02-15T12:47:50;17.30;99.90
36594;DHT22;22603;47.900;8.146;2024-02-15T12:50:39;17.10;99.90
36594;DHT22;22603;47.900;8.146;2024-02-15T12:53:27;16.90;99.90
36594;DHT22;22603;47.900;8.146;2024-02-15T12:56:20;16.70;99.90
36594;DHT22;22603;47.900;8.146;2024-02-15T12:59:07;16.90;99.90
36594;DHT22;22603;47.900;8.146;2024-02-15T13:01:54;16.80;99.90
36594;DHT22;22603;47.900;8.146;2024-02-15T13:04:41;16.90;99.90
36594;DHT22;22603;47.900;8.146;2024-02-15T13:07:29;17.10;99.90
36594;DHT22;22603;47.900;8.146;2024-02-15T13:10:17;17.20;99.90
36594;DHT22;22603;47.900;8.146;2024-02-15T13:13:03;17.10;99.90
36594;DHT22;22603;47.900;8.146;2024-02-15T13:15:51;17.10;99.90
36594;DHT22;22603;47.900;8.146;2024-02-15T13:18:38;16.90;99.90
36594;DHT22;22603;47.900;8.146;2024-02-15T13:21:25;16.80;99.90
36594;DHT22;22603;47.900;8.146;2024-02-15T13:24:17;16.80;99.90
36594;DHT22;22603;47.900;8.146;2024-02-15T13:27:04;16.60;99.90
36594;DHT22;22603;47.900;8.146;2024-02-15T13:29:51;16.40;99.90
36594;DHT22;22603;47.900;8.146;2024-02-15T13:32:39;16.40;99.90
36594;DHT22;22603;47.900;8.146;2024-02-15T13:35:27;16.40;99.90
36594;DHT22;22603;47.900;8.146;2024-02-15T13:38:14;16.20;99.90
36594;DHT22;22603;47.900;8.146;2024-02-15T13:41:10;16.00;99.90
36594;DHT22;22603;47.900;8.146;2024-02-15T13:43:57;15.80;99.90
36594;DHT22;22603;47.900;8.146;2024-02-15T13:46:46;15.60;99.90
36594;DHT22;22603;47.900;8.146;2024-02-15T13:49:35;15.50;99.90
36594;DHT22;22603;47.900;8.146;2024-02-15T13:52:22;15.50;99.90
36594;DHT22;22603;47.900;8.146;2024-02-15T13:55:10;15.40;99.90
36594;DHT22;22603;47.900;8.146;2024-02-15T13:57:59;15.30;99.90
36594;DHT22;22603;47.900;8.146;2024-02-15T14:00:47;15.30;99.90
36594;DHT22;22603;47.900;8.146;2024-02-15T14:03:34;15.30;99.90
36594;DHT22;22603;47.900;8.146;2024-02-15T14:06:21;15.30;99.90
36594;DHT22;22603;47.900;8.146;2024-02-15T14:09:09;15.30;99.90
36594;DHT22;22603;47.900;8.146;2024-02-15T14:11:56;15.20;99.90
36594;DHT22;22603;47.900;8.146;2024-02-15T14:14:45;15.30;99.90
36594;DHT22;22603;47.900;8.146;2024-02-15T14:17:32;15.30;99.90
36594;DHT22;22603;47.900;8.146;2024-02-15T14:20:19;15.20;99.90
36594;DHT22;22603;47.900;8.146;2024-02-15T14:23:07;15.10;99.90
36594;DHT22;22603;47.900;8.146;2024-02-15T14:26:00;15.10;99.90
36594;DHT22;22603;47.900;8.146;2024-02-15T14:28:47;15.20;99.90
36594;DHT22;22603;47.900;8.146;2024-02-15T14:31:36;15.30;99.90
36594;DHT22;22603;47.900;8.146;2024-02-15T14:34:40;15.30;99.90
36594;DHT22;22603;47.900;8.146;2024-02-15T14:37:27;15.20;99.90
36594;DHT22;22603;47.900;8.146;2024-02-15T14:40:14;14.90;99.90
36594;DHT22;22603;47.900;8.146;2024-02-15T14:43:03;14.80;99.90
36594;DHT22;22603;47.900;8.146;2024-02-15T14:45:51;14.70;99.90
36594;DHT22;22603;47.900;8.146;2024-02-15T14:48:40;14.60;99.90
36594;DHT22;22603;47.900;8.146;2024-02-15T14:51:27;14.60;99.90
36594;DHT22;22603;47.900;8.146;2024-02-15T14:54:14;14.50;99.90
36594;DHT22;22603;47.900;8.146;2024-02-15T14:57:08;14.50;99.90
36594;DHT22;22603;47.900;8.146;2024-02-15T14:59:55;14.40;99.90
36594;DHT22;22603;47.900;8.146;2024-02-15T15:02:42;14.30;99.90
36594;DHT22;22603;47.900;8.146;2024-02-15T15:05:30;14.30;99.90
36594;DHT22;22603;47.900;8.146;2024-02-15T15:08:35;14.10;99.90
36594;DHT22;22603;47.900;8.146;2024-02-15T15:11:39;14.10;99.90
36594;DHT22;22603;47.900;8.146;2024-02-15T15:14:43;13.90;99.90
36594;DHT22;22603;47.900;8.146;2024-02-15T15:17:31;13.80;99.90
36594;DHT22;22603;47.900;8.146;2024-02-15T15:20:19;13.70;99.90
36594;DHT22;22603;47.900;8.146;2024-02-15T15:23:08;13.70;99.90
36594;DHT22;22603;47.900;8.146;2024-02-15T15:25:55;13.60;99.90
36594;DHT22;22603;47.900;8.146;2024-02-15T15:28:42;13.70;99.90
36594;DHT22;22603;47.900;8.146;2024-02-15T15:31:28;13.70;99.90
36594;DHT22;22603;47.900;8.146;2024-02-15T15:34:16;13.70;99.90
36594;DHT22;22603;47.900;8.146;2024-02-15T15:37:05;13.60;99.90
36594;DHT22;22603;47.900;8.146;2024-02-15T15:39:54;13.60;99.90
36594;DHT22;22603;47.900;8.146;2024-02-15T15:42:41;13.60;99.90
36594;DHT22;22603;47.900;8.146;2024-02-15T15:45:28;13.50;99.90
36594;DHT22;22603;47.900;8.146;2024-02-15T15:48:15;13.40;99.90
36594;DHT22;22603;47.900;8.146;2024-02-15T15:51:03;13.30;99.90
36594;DHT22;22603;47.900;8.146;2024-02-15T15:53:51;13.30;99.90
36594;DHT22;22603;47.900;8.146;2024-02-15T15:56:41;13.10;99.90
36594;DHT22;22603;47.900;8.146;2024-02-15T15:59:28;13.00;99.90
36594;DHT22;22603;47.900;8.146;2024-02-15T16:02:14;12.90;99.90
36594;DHT22;22603;47.900;8.146;2024-02-15T16:05:03;12.80;99.90
36594;DHT22;22603;47.900;8.146;2024-02-15T16:07:50;12.70;99.90
36594;DHT22;22603;47.900;8.146;2024-02-15T16:10:37;12.70;99.90
36594;DHT22;22603;47.900;8.146;2024-02-15T16:13:27;12.60;99.90
36594;DHT22;22603;47.900;8.146;2024-02-15T16:16:14;12.50;99.90
36594;DHT22;22603;47.900;8.146;2024-02-15T16:19:01;12.40;99.90
36594;DHT22;22603;47.900;8.146;2024-02-15T16:21:49;12.20;99.90
36594;DHT22;22603;47.900;8.146;2024-02-15T16:24:36;12.00;99.90
36594;DHT22;22603;47.900;8.146;2024-02-15T16:27:24;11.90;99.90
36594;DHT22;22603;47.900;8.146;2024-02-15T16:30:12;11.80;99.90
36594;DHT22;22603;47.900;8.146;2024-02-15T16:33:00;11.80;99.90
36594;DHT22;22603;47.900;8.146;2024-02-15T16:35:47;11.70;99.90
36594;DHT22;22603;47.900;8.146;2024-02-15T16:38:33;11.60;99.90
36594;DHT22;22603;47.900;8.146;2024-02-15T16:41:21;11.60;99.90
36594;DHT22;22603;47.900;8.146;2024-02-15T16:44:10;11.50;99.90
36594;DHT22;22603;47.900;8.146;2024-02-15T16:46:58;11.30;99.90
36594;DHT22;22603;47.900;8.146;2024-02-15T16:49:45;11.20;99.90
36594;DHT22;22603;47.900;8.146;2024-02-15T16:52:32;11.00;99.90
36594;DHT22;22603;47.900;8.146;2024-02-15T16:55:19;11.00;99.90
36594;DHT22;22603;47.900;8.146;2024-02-15T16:58:12;11.00;99.90
36594;DHT22;22603;47.900;8.146;2024-02-15T17:00:59;10.90;99.90
36594;DHT22;22603;47.900;8.146;2024-02-15T17:03:48;10.70;99.90
36594;DHT22;22603;47.900;8.146;2024-02-15T17:06:35;10.70;99.90
36594;DHT22;22603;47.900;8.146;2024-02-15T17:09:23;10.70;99.90
36594;DHT22;22603;47.900;8.146;2024-02-15T17:12:10;10.60;99.90
36594;DHT22;22603;47.900;8.146;2024-02-15T17:14:56;10.50;99.90
36594;DHT22;22603;47.900;8.146;2024-02-15T17:17:43;10.50;99.90
36594;DHT22;22603;47.900;8.146;2024-02-15T17:20:33;10.40;99.90
36594;DHT22;22603;47.900;8.146;2024-02-15T17:23:19;10.40;99.90
36594;DHT22;22603;47.900;8.146;2024-02-15T17:26:09;10.30;99.90
36594;DHT22;22603;47.900;8.146;2024-02-15T17:28:56;10.30;99.90
36594;DHT22;22603;47.900;8.146;2024-02-15T17:31:49;10.20;99.90
36594;DHT22;22603;47.900;8.146;2024-02-15T17:34:36;10.10;99.90
36594;DHT22;22603;47.900;8.146;2024-02-15T17:37:25;10.10;99.90
36594;DHT22;22603;47.900;8.146;2024-02-15T17:40:11;10.00;99.90
36594;DHT22;22603;47.900;8.146;2024-02-15T17:42:59;9.90;99.90
36594;DHT22;22603;47.900;8.146;2024-02-15T17:45:46;9.90;99.90
36594;DHT22;22603;47.900;8.146;2024-02-15T17:48:35;9.70;99.90
36594;DHT22;22603;47.900;8.146;2024-02-15T17:51:22;9.60;99.90
36594;DHT22;22603;47.900;8.146;2024-02-15T17:54:10;9.50;99.90
36594;DHT22;22603;47.900;8.146;2024-02-15T17:56:57;9.40;99.90